sensor_id;sensor_type;location;lat;lon;timestamp;P1;durP1;ratioP1;P2;durP2;ratioP2
39518;SDS011;25200;53.394;10.414;2023-08-12T00:01:38;5.57;;;2.55;;
39518;SDS011;25200;53.394;10.414;2023-08-12T00:04:04;6.07;;;2.45;;
39518;SDS011;25200;53.394;10.414;2023-08-12T00:06:30;4.78;;;2.42;;
39518;SDS011;25200;53.394;10.414;2023-08-12T00:08:55;7.32;;;2.83;;
39518;SDS011;25200;53.394;10.414;2023-08-12T00:11:21;4.95;;;2.60;;
39518;SDS011;25200;53.394;10.414;2023-08-12T00:13:47;9.02;;;2.50;;
39518;SDS011;25200;53.394;10.414;2023-08-12T00:16:12;5.50;;;2.17;;
39518;SDS011;25200;53.394;10.414;2023-08-12T00:18:38;7.90;;;2.63;;
39518;SDS011;25200;53.394;10.414;2023-08-12T00:21:07;6.13;;;2.50;;
39518;SDS011;25200;53.394;10.414;2023-08-12T00:23:39;5.97;;;2.70;;
39518;SDS011;25200;53.394;10.414;2023-08-12T00:26:06;4.50;;;2.40;;
39518;SDS011;25200;53.394;10.414;2023-08-12T00:28:32;5.05;;;2.83;;
39518;SDS011;25200;53.394;10.414;2023-08-12T00:30:58;6.65;;;2.47;;
39518;SDS011;25200;53.394;10.414;2023-08-12T00:33:24;5.85;;;2.50;;
39518;SDS011;25200;53.394;10.414;2023-08-12T00:35:50;5.35;;;2.47;;
39518;SDS011;25200;53.394;10.414;2023-08-12T00:38:15;7.40;;;2.80;;
39518;SDS011;25200;53.394;10.414;2023-08-12T00:40:41;4.93;;;2.47;;
39518;SDS011;25200;53.394;10.414;2023-08-12T00:43:06;6.03;;;2.50;;
39518;SDS011;25200;53.394;10.414;2023-08-12T00:45:34;6.65;;;2.63;;
39518;SDS011;25200;53.394;10.414;2023-08-12T00:48:00;9.30;;;2.70;;
39518;SDS011;25200;53.394;10.414;2023-08-12T00:50:26;5.95;;;2.75;;
39518;SDS011;25200;53.394;10.414;2023-08-12T00:52:52;6.00;;;2.40;;
39518;SDS011;25200;53.394;10.414;2023-08-12T00:55:17;5.03;;;2.58;;
39518;SDS011;25200;53.394;10.414;2023-08-12T00:57:43;7.40;;;2.63;;
39518;SDS011;25200;53.394;10.414;2023-08-12T01:00:09;6.43;;;2.67;;
39518;SDS011;25200;53.394;10.414;2023-08-12T01:02:35;5.55;;;2.60;;
39518;SDS011;25200;53.394;10.414;2023-08-12T01:05:01;7.10;;;2.70;;
39518;SDS011;25200;53.394;10.414;2023-08-12T01:07:27;7.43;;;2.58;;
39518;SDS011;25200;53.394;10.414;2023-08-12T01:09:52;8.02;;;2.88;;
39518;SDS011;25200;53.394;10.414;2023-08-12T01:12:23;7.75;;;2.47;;
39518;SDS011;25200;53.394;10.414;2023-08-12T01:15:17;5.78;;;2.70;;
39518;SDS011;25200;53.394;10.414;2023-08-12T01:17:46;7.60;;;2.47;;
39518;SDS011;25200;53.394;10.414;2023-08-12T01:20:17;7.90;;;2.60;;
39518;SDS011;25200;53.394;10.414;2023-08-12T01:22:49;4.40;;;2.30;;
39518;SDS011;25200;53.394;10.414;2023-08-12T01:25:38;5.63;;;2.58;;
39518;SDS011;25200;53.394;10.414;2023-08-12T01:28:04;5.82;;;2.60;;
39518;SDS011;25200;53.394;10.414;2023-08-12T01:30:30;4.53;;;2.70;;
39518;SDS011;25200;53.394;10.414;2023-08-12T01:33:10;4.30;;;2.45;;
39518;SDS011;25200;53.394;10.414;2023-08-12T01:36:00;5.65;;;2.70;;
39518;SDS011;25200;53.394;10.414;2023-08-12T01:38:42;4.32;;;2.40;;
39518;SDS011;25200;53.394;10.414;2023-08-12T01:41:09;4.00;;;2.30;;
39518;SDS011;25200;53.394;10.414;2023-08-12T01:43:36;6.20;;;2.47;;
39518;SDS011;25200;53.394;10.414;2023-08-12T01:46:03;5.80;;;2.50;;
39518;SDS011;25200;53.394;10.414;2023-08-12T01:48:28;6.07;;;2.67;;
39518;SDS011;25200;53.394;10.414;2023-08-12T01:50:54;8.05;;;2.38;;
39518;SDS011;25200;53.394;10.414;2023-08-12T01:53:20;6.35;;;2.50;;
39518;SDS011;25200;53.394;10.414;2023-08-12T01:55:45;4.88;;;2.30;;
39518;SDS011;25200;53.394;10.414;2023-08-12T01:58:11;5.43;;;2.70;;
39518;SDS011;25200;53.394;10.414;2023-08-12T02:00:36;4.57;;;2.35;;
39518;SDS011;25200;53.394;10.414;2023-08-12T02:03:02;4.32;;;2.40;;
39518;SDS011;25200;53.394;10.414;2023-08-12T02:05:28;4.50;;;2.33;;
39518;SDS011;25200;53.394;10.414;2023-08-12T02:07:54;7.65;;;2.42;;
39518;SDS011;25200;53.394;10.414;2023-08-12T02:10:19;5.72;;;2.40;;
39518;SDS011;25200;53.394;10.414;2023-08-12T02:12:45;7.63;;;2.80;;
39518;SDS011;25200;53.394;10.414;2023-08-12T02:15:10;5.32;;;2.78;;
39518;SDS011;25200;53.394;10.414;2023-08-12T02:17:36;6.22;;;2.50;;
39518;SDS011;25200;53.394;10.414;2023-08-12T02:20:02;6.10;;;2.95;;
39518;SDS011;25200;53.394;10.414;2023-08-12T02:22:28;5.05;;;2.30;;
39518;SDS011;25200;53.394;10.414;2023-08-12T02:24:54;4.72;;;2.53;;
39518;SDS011;25200;53.394;10.414;2023-08-12T02:27:20;5.25;;;2.55;;
39518;SDS011;25200;53.394;10.414;2023-08-12T02:29:45;5.90;;;2.85;;
39518;SDS011;25200;53.394;10.414;2023-08-12T02:32:11;5.88;;;2.88;;
39518;SDS011;25200;53.394;10.414;2023-08-12T02:34:36;5.63;;;2.60;;
39518;SDS011;25200;53.394;10.414;2023-08-12T02:37:02;6.78;;;2.80;;
39518;SDS011;25200;53.394;10.414;2023-08-12T02:39:28;5.15;;;2.58;;
39518;SDS011;25200;53.394;10.414;2023-08-12T02:41:53;4.60;;;2.45;;
39518;SDS011;25200;53.394;10.414;2023-08-12T02:44:19;7.00;;;2.30;;
39518;SDS011;25200;53.394;10.414;2023-08-12T02:46:44;4.85;;;2.47;;
39518;SDS011;25200;53.394;10.414;2023-08-12T02:49:10;5.97;;;2.70;;
39518;SDS011;25200;53.394;10.414;2023-08-12T02:51:35;4.28;;;2.40;;
39518;SDS011;25200;53.394;10.414;2023-08-12T02:54:01;4.38;;;2.30;;
39518;SDS011;25200;53.394;10.414;2023-08-12T02:56:27;5.32;;;2.80;;
39518;SDS011;25200;53.394;10.414;2023-08-12T02:58:52;4.85;;;2.40;;
39518;SDS011;25200;53.394;10.414;2023-08-12T03:01:18;7.90;;;2.92;;
39518;SDS011;25200;53.394;10.414;2023-08-12T03:03:44;7.20;;;2.58;;
39518;SDS011;25200;53.394;10.414;2023-08-12T03:06:09;5.10;;;2.45;;
39518;SDS011;25200;53.394;10.414;2023-08-12T03:08:35;6.38;;;2.42;;
39518;SDS011;25200;53.394;10.414;2023-08-12T03:11:01;4.88;;;2.58;;
39518;SDS011;25200;53.394;10.414;2023-08-12T03:13:27;4.78;;;2.40;;
39518;SDS011;25200;53.394;10.414;2023-08-12T03:15:54;4.80;;;2.53;;
39518;SDS011;25200;53.394;10.414;2023-08-12T03:18:20;6.20;;;2.50;;
39518;SDS011;25200;53.394;10.414;2023-08-12T03:20:45;5.18;;;2.85;;
39518;SDS011;25200;53.394;10.414;2023-08-12T03:23:11;4.70;;;2.47;;
39518;SDS011;25200;53.394;10.414;2023-08-12T03:25:37;6.22;;;2.47;;
39518;SDS011;25200;53.394;10.414;2023-08-12T03:28:02;5.00;;;2.60;;
39518;SDS011;25200;53.394;10.414;2023-08-12T03:30:28;5.32;;;2.20;;
39518;SDS011;25200;53.394;10.414;2023-08-12T03:32:54;6.75;;;2.47;;
39518;SDS011;25200;53.394;10.414;2023-08-12T03:35:20;4.72;;;2.40;;
39518;SDS011;25200;53.394;10.414;2023-08-12T03:37:45;6.97;;;2.67;;
39518;SDS011;25200;53.394;10.414;2023-08-12T03:40:11;5.00;;;2.58;;
39518;SDS011;25200;53.394;10.414;2023-08-12T03:42:36;5.68;;;2.28;;
39518;SDS011;25200;53.394;10.414;2023-08-12T03:45:02;4.45;;;2.42;;
39518;SDS011;25200;53.394;10.414;2023-08-12T03:47:28;4.93;;;2.58;;
39518;SDS011;25200;53.394;10.414;2023-08-12T03:49:53;4.18;;;2.40;;
39518;SDS011;25200;53.394;10.414;2023-08-12T03:52:19;4.75;;;2.53;;
39518;SDS011;25200;53.394;10.414;2023-08-12T03:54:45;4.47;;;2.50;;
39518;SDS011;25200;53.394;10.414;2023-08-12T03:57:11;9.02;;;2.70;;
39518;SDS011;25200;53.394;10.414;2023-08-12T03:59:36;7.95;;;2.42;;
39518;SDS011;25200;53.394;10.414;2023-08-12T04:02:02;5.43;;;2.78;;
39518;SDS011;25200;53.394;10.414;2023-08-12T04:04:29;6.13;;;2.50;;
39518;SDS011;25200;53.394;10.414;2023-08-12T04:06:55;7.78;;;2.50;;
39518;SDS011;25200;53.394;10.414;2023-08-12T04:09:20;4.90;;;2.35;;
39518;SDS011;25200;53.394;10.414;2023-08-12T04:11:46;6.60;;;2.90;;
39518;SDS011;25200;53.394;10.414;2023-08-12T04:14:12;5.63;;;2.67;;
39518;SDS011;25200;53.394;10.414;2023-08-12T04:16:38;6.40;;;2.80;;
39518;SDS011;25200;53.394;10.414;2023-08-12T04:19:04;6.60;;;2.78;;
39518;SDS011;25200;53.394;10.414;2023-08-12T04:21:30;4.90;;;2.30;;
39518;SDS011;25200;53.394;10.414;2023-08-12T04:23:55;4.75;;;2.70;;
39518;SDS011;25200;53.394;10.414;2023-08-12T04:26:21;7.85;;;2.38;;
39518;SDS011;25200;53.394;10.414;2023-08-12T04:28:47;4.80;;;2.50;;
39518;SDS011;25200;53.394;10.414;2023-08-12T04:31:12;6.03;;;2.50;;
39518;SDS011;25200;53.394;10.414;2023-08-12T04:33:38;6.45;;;2.92;;
39518;SDS011;25200;53.394;10.414;2023-08-12T04:36:04;6.95;;;2.70;;
39518;SDS011;25200;53.394;10.414;2023-08-12T04:38:29;5.35;;;2.72;;
39518;SDS011;25200;53.394;10.414;2023-08-12T04:40:56;5.45;;;2.33;;
39518;SDS011;25200;53.394;10.414;2023-08-12T04:43:22;5.18;;;2.67;;
39518;SDS011;25200;53.394;10.414;2023-08-12T04:45:48;6.90;;;2.70;;
39518;SDS011;25200;53.394;10.414;2023-08-12T04:48:14;7.78;;;2.70;;
39518;SDS011;25200;53.394;10.414;2023-08-12T04:50:41;5.30;;;2.45;;
39518;SDS011;25200;53.394;10.414;2023-08-12T04:53:07;6.65;;;2.67;;
39518;SDS011;25200;53.394;10.414;2023-08-12T04:55:33;5.30;;;2.88;;
39518;SDS011;25200;53.394;10.414;2023-08-12T04:58:00;5.05;;;2.40;;
39518;SDS011;25200;53.394;10.414;2023-08-12T05:00:29;7.03;;;2.67;;
39518;SDS011;25200;53.394;10.414;2023-08-12T05:02:55;4.18;;;2.40;;
39518;SDS011;25200;53.394;10.414;2023-08-12T05:05:21;4.63;;;2.40;;
39518;SDS011;25200;53.394;10.414;2023-08-12T05:07:46;6.28;;;2.72;;
39518;SDS011;25200;53.394;10.414;2023-08-12T05:10:15;6.93;;;2.70;;
39518;SDS011;25200;53.394;10.414;2023-08-12T05:12:42;6.55;;;2.90;;
39518;SDS011;25200;53.394;10.414;2023-08-12T05:15:09;5.43;;;2.70;;
39518;SDS011;25200;53.394;10.414;2023-08-12T05:17:35;6.05;;;2.67;;
39518;SDS011;25200;53.394;10.414;2023-08-12T05:20:01;4.55;;;2.63;;
39518;SDS011;25200;53.394;10.414;2023-08-12T05:22:26;6.72;;;2.70;;
39518;SDS011;25200;53.394;10.414;2023-08-12T05:24:52;5.38;;;2.70;;
39518;SDS011;25200;53.394;10.414;2023-08-12T05:27:17;4.35;;;2.55;;
39518;SDS011;25200;53.394;10.414;2023-08-12T05:29:43;6.00;;;2.80;;
39518;SDS011;25200;53.394;10.414;2023-08-12T05:32:09;4.65;;;2.70;;
39518;SDS011;25200;53.394;10.414;2023-08-12T05:34:34;5.85;;;2.72;;
39518;SDS011;25200;53.394;10.414;2023-08-12T05:37:00;6.85;;;3.08;;
39518;SDS011;25200;53.394;10.414;2023-08-12T05:39:25;7.97;;;3.08;;
39518;SDS011;25200;53.394;10.414;2023-08-12T05:41:51;7.78;;;2.70;;
39518;SDS011;25200;53.394;10.414;2023-08-12T05:44:17;9.20;;;2.70;;
39518;SDS011;25200;53.394;10.414;2023-08-12T05:46:43;7.80;;;2.80;;
39518;SDS011;25200;53.394;10.414;2023-08-12T05:49:11;7.47;;;2.83;;
39518;SDS011;25200;53.394;10.414;2023-08-12T05:51:37;7.13;;;2.88;;
39518;SDS011;25200;53.394;10.414;2023-08-12T05:54:03;5.22;;;2.55;;
39518;SDS011;25200;53.394;10.414;2023-08-12T05:56:29;5.22;;;2.58;;
39518;SDS011;25200;53.394;10.414;2023-08-12T05:58:55;5.13;;;2.83;;
39518;SDS011;25200;53.394;10.414;2023-08-12T06:01:21;6.45;;;2.95;;
39518;SDS011;25200;53.394;10.414;2023-08-12T06:03:46;5.30;;;2.80;;
39518;SDS011;25200;53.394;10.414;2023-08-12T06:06:12;7.70;;;2.85;;
39518;SDS011;25200;53.394;10.414;2023-08-12T06:08:37;5.70;;;3.10;;
39518;SDS011;25200;53.394;10.414;2023-08-12T06:11:03;9.43;;;3.00;;
39518;SDS011;25200;53.394;10.414;2023-08-12T06:13:31;7.50;;;3.00;;
39518;SDS011;25200;53.394;10.414;2023-08-12T06:15:56;7.57;;;3.00;;
39518;SDS011;25200;53.394;10.414;2023-08-12T06:18:22;5.07;;;2.60;;
39518;SDS011;25200;53.394;10.414;2023-08-12T06:20:48;6.65;;;2.58;;
39518;SDS011;25200;53.394;10.414;2023-08-12T06:23:16;6.40;;;2.95;;
39518;SDS011;25200;53.394;10.414;2023-08-12T06:25:42;6.10;;;3.20;;
39518;SDS011;25200;53.394;10.414;2023-08-12T06:28:08;4.72;;;2.95;;
39518;SDS011;25200;53.394;10.414;2023-08-12T06:30:35;5.20;;;2.72;;
39518;SDS011;25200;53.394;10.414;2023-08-12T06:33:01;4.57;;;2.78;;
39518;SDS011;25200;53.394;10.414;2023-08-12T06:35:26;4.78;;;2.60;;
39518;SDS011;25200;53.394;10.414;2023-08-12T06:37:52;7.47;;;3.00;;
39518;SDS011;25200;53.394;10.414;2023-08-12T06:40:21;6.15;;;2.95;;
39518;SDS011;25200;53.394;10.414;2023-08-12T06:42:49;5.97;;;2.92;;
39518;SDS011;25200;53.394;10.414;2023-08-12T06:45:14;4.75;;;2.80;;
39518;SDS011;25200;53.394;10.414;2023-08-12T06:47:40;7.13;;;2.70;;
39518;SDS011;25200;53.394;10.414;2023-08-12T06:50:05;4.43;;;2.63;;
39518;SDS011;25200;53.394;10.414;2023-08-12T06:52:31;6.18;;;2.90;;
39518;SDS011;25200;53.394;10.414;2023-08-12T06:54:57;8.00;;;3.40;;
39518;SDS011;25200;53.394;10.414;2023-08-12T06:57:22;6.80;;;3.35;;
39518;SDS011;25200;53.394;10.414;2023-08-12T06:59:48;9.02;;;3.28;;
39518;SDS011;25200;53.394;10.414;2023-08-12T07:02:14;8.73;;;3.15;;
39518;SDS011;25200;53.394;10.414;2023-08-12T07:04:39;8.35;;;2.90;;
39518;SDS011;25200;53.394;10.414;2023-08-12T07:07:07;8.07;;;3.08;;
39518;SDS011;25200;53.394;10.414;2023-08-12T07:09:33;4.85;;;3.17;;
39518;SDS011;25200;53.394;10.414;2023-08-12T07:11:59;4.90;;;3.05;;
39518;SDS011;25200;53.394;10.414;2023-08-12T07:14:28;5.20;;;2.95;;
39518;SDS011;25200;53.394;10.414;2023-08-12T07:16:53;6.68;;;3.20;;
39518;SDS011;25200;53.394;10.414;2023-08-12T07:19:19;11.55;;;4.13;;
39518;SDS011;25200;53.394;10.414;2023-08-12T07:21:44;6.07;;;3.20;;
39518;SDS011;25200;53.394;10.414;2023-08-12T07:24:10;6.53;;;3.40;;
39518;SDS011;25200;53.394;10.414;2023-08-12T07:26:36;5.63;;;3.28;;
39518;SDS011;25200;53.394;10.414;2023-08-12T07:29:02;6.25;;;3.25;;
39518;SDS011;25200;53.394;10.414;2023-08-12T07:31:27;7.95;;;3.80;;
39518;SDS011;25200;53.394;10.414;2023-08-12T07:33:53;5.72;;;3.22;;
39518;SDS011;25200;53.394;10.414;2023-08-12T07:36:19;10.98;;;3.38;;
39518;SDS011;25200;53.394;10.414;2023-08-12T07:38:47;5.38;;;3.58;;
39518;SDS011;25200;53.394;10.414;2023-08-12T07:41:12;9.77;;;3.70;;
39518;SDS011;25200;53.394;10.414;2023-08-12T07:43:38;7.32;;;3.20;;
39518;SDS011;25200;53.394;10.414;2023-08-12T07:46:04;6.22;;;3.20;;
39518;SDS011;25200;53.394;10.414;2023-08-12T07:48:29;8.63;;;3.55;;
39518;SDS011;25200;53.394;10.414;2023-08-12T07:50:58;7.50;;;3.40;;
39518;SDS011;25200;53.394;10.414;2023-08-12T07:53:25;7.47;;;3.85;;
39518;SDS011;25200;53.394;10.414;2023-08-12T07:55:51;6.25;;;3.50;;
39518;SDS011;25200;53.394;10.414;2023-08-12T07:58:17;6.70;;;3.78;;
39518;SDS011;25200;53.394;10.414;2023-08-12T08:00:43;6.72;;;3.50;;
39518;SDS011;25200;53.394;10.414;2023-08-12T08:03:08;9.07;;;3.60;;
39518;SDS011;25200;53.394;10.414;2023-08-12T08:05:34;8.00;;;3.63;;
39518;SDS011;25200;53.394;10.414;2023-08-12T08:08:00;7.55;;;3.92;;
39518;SDS011;25200;53.394;10.414;2023-08-12T08:10:25;6.88;;;3.85;;
39518;SDS011;25200;53.394;10.414;2023-08-12T08:12:51;6.78;;;3.83;;
39518;SDS011;25200;53.394;10.414;2023-08-12T08:15:17;9.15;;;4.10;;
39518;SDS011;25200;53.394;10.414;2023-08-12T08:17:42;8.65;;;3.90;;
39518;SDS011;25200;53.394;10.414;2023-08-12T08:20:08;11.05;;;4.57;;
39518;SDS011;25200;53.394;10.414;2023-08-12T08:22:35;7.20;;;3.83;;
39518;SDS011;25200;53.394;10.414;2023-08-12T08:25:01;9.30;;;4.35;;
39518;SDS011;25200;53.394;10.414;2023-08-12T08:27:27;8.02;;;3.83;;
39518;SDS011;25200;53.394;10.414;2023-08-12T08:29:53;7.85;;;3.88;;
39518;SDS011;25200;53.394;10.414;2023-08-12T08:32:21;7.30;;;4.47;;
39518;SDS011;25200;53.394;10.414;2023-08-12T08:34:47;7.28;;;3.97;;
39518;SDS011;25200;53.394;10.414;2023-08-12T08:37:13;8.02;;;4.35;;
39518;SDS011;25200;53.394;10.414;2023-08-12T08:39:38;7.57;;;4.00;;
39518;SDS011;25200;53.394;10.414;2023-08-12T08:42:05;8.80;;;3.80;;
39518;SDS011;25200;53.394;10.414;2023-08-12T08:44:31;5.95;;;3.67;;
39518;SDS011;25200;53.394;10.414;2023-08-12T08:46:58;6.50;;;3.67;;
39518;SDS011;25200;53.394;10.414;2023-08-12T08:49:25;8.30;;;4.10;;
39518;SDS011;25200;53.394;10.414;2023-08-12T08:51:53;6.38;;;3.80;;
39518;SDS011;25200;53.394;10.414;2023-08-12T08:54:19;9.27;;;4.20;;
39518;SDS011;25200;53.394;10.414;2023-08-12T08:56:46;8.07;;;4.20;;
39518;SDS011;25200;53.394;10.414;2023-08-12T08:59:14;7.93;;;3.80;;
39518;SDS011;25200;53.394;10.414;2023-08-12T09:01:40;7.45;;;4.00;;
39518;SDS011;25200;53.394;10.414;2023-08-12T09:04:08;11.60;;;4.63;;
39518;SDS011;25200;53.394;10.414;2023-08-12T09:06:35;6.90;;;3.92;;
39518;SDS011;25200;53.394;10.414;2023-08-12T09:09:05;6.97;;;3.80;;
39518;SDS011;25200;53.394;10.414;2023-08-12T09:11:35;7.65;;;3.85;;
39518;SDS011;25200;53.394;10.414;2023-08-12T09:14:03;7.30;;;4.28;;
39518;SDS011;25200;53.394;10.414;2023-08-12T09:16:29;9.63;;;3.80;;
39518;SDS011;25200;53.394;10.414;2023-08-12T09:18:55;8.32;;;4.10;;
39518;SDS011;25200;53.394;10.414;2023-08-12T09:21:23;7.63;;;4.10;;
39518;SDS011;25200;53.394;10.414;2023-08-12T09:23:49;8.55;;;4.22;;
39518;SDS011;25200;53.394;10.414;2023-08-12T09:26:15;10.93;;;3.80;;
39518;SDS011;25200;53.394;10.414;2023-08-12T09:28:43;9.63;;;3.63;;
39518;SDS011;25200;53.394;10.414;2023-08-12T09:31:28;7.97;;;4.70;;
39518;SDS011;25200;53.394;10.414;2023-08-12T09:34:04;6.72;;;4.30;;
39518;SDS011;25200;53.394;10.414;2023-08-12T09:36:34;8.88;;;4.82;;
39518;SDS011;25200;53.394;10.414;2023-08-12T09:39:00;11.25;;;4.18;;
39518;SDS011;25200;53.394;10.414;2023-08-12T09:41:30;8.10;;;4.15;;
39518;SDS011;25200;53.394;10.414;2023-08-12T09:43:56;8.85;;;3.95;;
39518;SDS011;25200;53.394;10.414;2023-08-12T09:46:23;8.88;;;3.85;;
39518;SDS011;25200;53.394;10.414;2023-08-12T09:48:49;11.13;;;4.38;;
39518;SDS011;25200;53.394;10.414;2023-08-12T09:51:16;5.93;;;3.80;;
39518;SDS011;25200;53.394;10.414;2023-08-12T09:53:47;6.57;;;3.90;;
39518;SDS011;25200;53.394;10.414;2023-08-12T09:56:14;6.18;;;3.92;;
39518;SDS011;25200;53.394;10.414;2023-08-12T09:58:47;10.30;;;4.25;;
39518;SDS011;25200;53.394;10.414;2023-08-12T10:01:13;7.72;;;4.07;;
39518;SDS011;25200;53.394;10.414;2023-08-12T10:03:50;9.20;;;4.20;;
39518;SDS011;25200;53.394;10.414;2023-08-12T10:06:17;9.57;;;4.07;;
39518;SDS011;25200;53.394;10.414;2023-08-12T10:08:45;9.63;;;4.70;;
39518;SDS011;25200;53.394;10.414;2023-08-12T10:11:12;9.35;;;4.20;;
39518;SDS011;25200;53.394;10.414;2023-08-12T10:13:41;8.40;;;3.90;;
39518;SDS011;25200;53.394;10.414;2023-08-12T10:16:08;7.40;;;4.03;;
39518;SDS011;25200;53.394;10.414;2023-08-12T10:18:35;7.00;;;3.88;;
39518;SDS011;25200;53.394;10.414;2023-08-12T10:21:03;7.03;;;4.10;;
39518;SDS011;25200;53.394;10.414;2023-08-12T10:23:30;7.78;;;3.78;;
39518;SDS011;25200;53.394;10.414;2023-08-12T10:25:57;8.43;;;4.25;;
39518;SDS011;25200;53.394;10.414;2023-08-12T10:28:24;9.10;;;4.35;;
39518;SDS011;25200;53.394;10.414;2023-08-12T10:30:50;8.75;;;4.22;;
39518;SDS011;25200;53.394;10.414;2023-08-12T10:33:17;7.78;;;4.30;;
39518;SDS011;25200;53.394;10.414;2023-08-12T10:35:47;11.52;;;4.85;;
39518;SDS011;25200;53.394;10.414;2023-08-12T10:38:20;7.32;;;4.57;;
39518;SDS011;25200;53.394;10.414;2023-08-12T10:40:46;7.40;;;4.65;;
39518;SDS011;25200;53.394;10.414;2023-08-12T10:43:13;11.32;;;4.40;;
39518;SDS011;25200;53.394;10.414;2023-08-12T10:45:51;8.50;;;4.18;;
39518;SDS011;25200;53.394;10.414;2023-08-12T10:48:22;7.53;;;4.70;;
39518;SDS011;25200;53.394;10.414;2023-08-12T10:50:53;10.52;;;5.40;;
39518;SDS011;25200;53.394;10.414;2023-08-12T10:53:24;11.25;;;5.68;;
39518;SDS011;25200;53.394;10.414;2023-08-12T10:55:58;8.95;;;4.50;;
39518;SDS011;25200;53.394;10.414;2023-08-12T10:58:29;10.00;;;4.78;;
39518;SDS011;25200;53.394;10.414;2023-08-12T11:00:59;10.60;;;5.82;;
39518;SDS011;25200;53.394;10.414;2023-08-12T11:03:25;12.02;;;5.65;;
39518;SDS011;25200;53.394;10.414;2023-08-12T11:05:57;10.65;;;4.53;;
39518;SDS011;25200;53.394;10.414;2023-08-12T11:08:25;9.60;;;5.22;;
39518;SDS011;25200;53.394;10.414;2023-08-12T11:10:54;8.82;;;5.90;;
39518;SDS011;25200;53.394;10.414;2023-08-12T11:13:22;8.48;;;5.95;;
39518;SDS011;25200;53.394;10.414;2023-08-12T11:15:47;9.18;;;5.60;;
39518;SDS011;25200;53.394;10.414;2023-08-12T11:18:18;9.50;;;5.88;;
39518;SDS011;25200;53.394;10.414;2023-08-12T11:20:45;7.88;;;4.82;;
39518;SDS011;25200;53.394;10.414;2023-08-12T11:23:13;8.80;;;5.13;;
39518;SDS011;25200;53.394;10.414;2023-08-12T11:25:40;10.45;;;5.30;;
39518;SDS011;25200;53.394;10.414;2023-08-12T11:28:07;9.38;;;4.55;;
39518;SDS011;25200;53.394;10.414;2023-08-12T11:30:33;9.35;;;4.85;;
39518;SDS011;25200;53.394;10.414;2023-08-12T11:33:00;8.90;;;4.95;;
39518;SDS011;25200;53.394;10.414;2023-08-12T11:35:26;8.05;;;4.60;;
39518;SDS011;25200;53.394;10.414;2023-08-12T11:37:53;8.60;;;4.43;;
39518;SDS011;25200;53.394;10.414;2023-08-12T11:40:21;8.85;;;4.50;;
39518;SDS011;25200;53.394;10.414;2023-08-12T11:42:49;10.18;;;4.93;;
39518;SDS011;25200;53.394;10.414;2023-08-12T11:45:17;8.70;;;4.88;;
39518;SDS011;25200;53.394;10.414;2023-08-12T11:47:47;9.43;;;5.18;;
39518;SDS011;25200;53.394;10.414;2023-08-12T11:50:17;8.32;;;4.18;;
39518;SDS011;25200;53.394;10.414;2023-08-12T11:52:44;10.10;;;5.35;;
39518;SDS011;25200;53.394;10.414;2023-08-12T11:55:11;8.05;;;4.80;;
39518;SDS011;25200;53.394;10.414;2023-08-12T11:57:39;8.85;;;4.90;;
39518;SDS011;25200;53.394;10.414;2023-08-12T12:00:06;9.65;;;4.80;;
39518;SDS011;25200;53.394;10.414;2023-08-12T12:02:38;9.15;;;5.15;;
39518;SDS011;25200;53.394;10.414;2023-08-12T12:05:14;8.97;;;5.27;;
39518;SDS011;25200;53.394;10.414;2023-08-12T12:07:41;11.70;;;6.47;;
39518;SDS011;25200;53.394;10.414;2023-08-12T12:10:07;9.95;;;5.22;;
39518;SDS011;25200;53.394;10.414;2023-08-12T12:12:34;8.23;;;5.00;;
39518;SDS011;25200;53.394;10.414;2023-08-12T12:15:00;11.10;;;5.60;;
39518;SDS011;25200;53.394;10.414;2023-08-12T12:17:27;9.80;;;5.25;;
39518;SDS011;25200;53.394;10.414;2023-08-12T12:19:54;11.90;;;5.50;;
39518;SDS011;25200;53.394;10.414;2023-08-12T12:22:20;8.73;;;4.60;;
39518;SDS011;25200;53.394;10.414;2023-08-12T12:24:57;9.90;;;5.00;;
39518;SDS011;25200;53.394;10.414;2023-08-12T12:27:24;7.70;;;5.20;;
39518;SDS011;25200;53.394;10.414;2023-08-12T12:29:49;8.43;;;5.22;;
39518;SDS011;25200;53.394;10.414;2023-08-12T12:32:17;7.93;;;4.93;;
39518;SDS011;25200;53.394;10.414;2023-08-12T12:34:44;9.05;;;5.15;;
39518;SDS011;25200;53.394;10.414;2023-08-12T12:37:10;9.57;;;5.47;;
39518;SDS011;25200;53.394;10.414;2023-08-12T12:39:35;10.60;;;5.90;;
39518;SDS011;25200;53.394;10.414;2023-08-12T12:42:01;12.88;;;6.68;;
39518;SDS011;25200;53.394;10.414;2023-08-12T12:44:27;10.30;;;6.72;;
39518;SDS011;25200;53.394;10.414;2023-08-12T12:46:56;11.43;;;6.22;;
39518;SDS011;25200;53.394;10.414;2023-08-12T12:49:21;8.40;;;5.00;;
39518;SDS011;25200;53.394;10.414;2023-08-12T12:51:47;13.48;;;6.57;;
39518;SDS011;25200;53.394;10.414;2023-08-12T12:54:13;13.13;;;6.03;;
39518;SDS011;25200;53.394;10.414;2023-08-12T12:56:38;9.55;;;5.82;;
39518;SDS011;25200;53.394;10.414;2023-08-12T12:59:04;9.95;;;5.53;;
39518;SDS011;25200;53.394;10.414;2023-08-12T13:01:30;7.95;;;5.30;;
39518;SDS011;25200;53.394;10.414;2023-08-12T13:03:56;9.38;;;5.07;;
39518;SDS011;25200;53.394;10.414;2023-08-12T13:06:22;9.93;;;5.38;;
39518;SDS011;25200;53.394;10.414;2023-08-12T13:08:48;9.57;;;5.20;;
39518;SDS011;25200;53.394;10.414;2023-08-12T13:11:14;10.32;;;6.25;;
39518;SDS011;25200;53.394;10.414;2023-08-12T13:13:40;13.90;;;8.90;;
39518;SDS011;25200;53.394;10.414;2023-08-12T13:16:06;13.73;;;8.73;;
39518;SDS011;25200;53.394;10.414;2023-08-12T13:18:33;12.15;;;7.05;;
39518;SDS011;25200;53.394;10.414;2023-08-12T13:20:59;14.40;;;7.35;;
39518;SDS011;25200;53.394;10.414;2023-08-12T13:23:24;10.68;;;5.35;;
39518;SDS011;25200;53.394;10.414;2023-08-12T13:25:50;9.43;;;5.20;;
39518;SDS011;25200;53.394;10.414;2023-08-12T13:28:15;12.93;;;7.15;;
39518;SDS011;25200;53.394;10.414;2023-08-12T13:30:41;14.27;;;8.23;;
39518;SDS011;25200;53.394;10.414;2023-08-12T13:33:07;10.23;;;5.85;;
39518;SDS011;25200;53.394;10.414;2023-08-12T13:35:33;13.77;;;6.28;;
39518;SDS011;25200;53.394;10.414;2023-08-12T13:37:59;7.60;;;4.97;;
39518;SDS011;25200;53.394;10.414;2023-08-12T13:40:24;10.05;;;4.75;;
39518;SDS011;25200;53.394;10.414;2023-08-12T13:42:50;7.25;;;4.68;;
39518;SDS011;25200;53.394;10.414;2023-08-12T13:45:16;9.35;;;4.88;;
39518;SDS011;25200;53.394;10.414;2023-08-12T13:47:41;7.75;;;4.75;;
39518;SDS011;25200;53.394;10.414;2023-08-12T13:50:07;8.35;;;4.78;;
39518;SDS011;25200;53.394;10.414;2023-08-12T13:52:33;9.50;;;5.43;;
39518;SDS011;25200;53.394;10.414;2023-08-12T13:54:58;8.05;;;5.13;;
39518;SDS011;25200;53.394;10.414;2023-08-12T13:57:24;9.18;;;5.88;;
39518;SDS011;25200;53.394;10.414;2023-08-12T13:59:50;9.25;;;5.72;;
39518;SDS011;25200;53.394;10.414;2023-08-12T14:02:15;9.32;;;5.63;;
39518;SDS011;25200;53.394;10.414;2023-08-12T14:04:41;6.75;;;4.55;;
39518;SDS011;25200;53.394;10.414;2023-08-12T14:07:06;10.18;;;4.40;;
39518;SDS011;25200;53.394;10.414;2023-08-12T14:09:34;7.97;;;4.72;;
39518;SDS011;25200;53.394;10.414;2023-08-12T14:11:59;8.75;;;4.72;;
39518;SDS011;25200;53.394;10.414;2023-08-12T14:14:25;10.63;;;5.20;;
39518;SDS011;25200;53.394;10.414;2023-08-12T14:16:54;9.35;;;5.63;;
39518;SDS011;25200;53.394;10.414;2023-08-12T14:19:19;7.95;;;4.85;;
39518;SDS011;25200;53.394;10.414;2023-08-12T14:21:45;9.38;;;5.25;;
39518;SDS011;25200;53.394;10.414;2023-08-12T14:24:13;9.30;;;5.40;;
39518;SDS011;25200;53.394;10.414;2023-08-12T14:26:39;9.07;;;5.50;;
39518;SDS011;25200;53.394;10.414;2023-08-12T14:29:05;12.10;;;5.93;;
39518;SDS011;25200;53.394;10.414;2023-08-12T14:31:31;8.27;;;5.43;;